Kirkby-in-Ashfield, United Kingdom
Current Conditions -  °F | °C
As of 4:20 PM on Sunday 25 Jan 2015 (Local Time) from EGNX Reporting Station
Broken Clouds Broken Clouds  
Wind Chill:   Ceiling: 3700
Heat Index:   Visibility: 6mi
Dew Point:   Wind: 16mph
Humidity: 87%   Direction: 230°SW
Pressure: 30.27"   Gusts: NA
Location:  53.1°N, 1.26°W
Report Text: EGNX 251620Z 23014KT 9999 SCT011 BKN037 08/06 Q1025
Loading
Personal Weather Stations






























Interactive Weather Map New forecast layout! Learn more

10-Day Weather Forecast

Advertisements
Track Severe Weather on mobile